createdAt,value
2017-07-11T00:01:26.130Z,0
2017-07-11T00:06:22.973Z,0
2017-07-11T00:11:18.602Z,0
2017-07-11T00:16:15.162Z,0
2017-07-11T00:21:10.929Z,0
2017-07-11T00:26:07.367Z,0
2017-07-11T00:31:03.327Z,0
2017-07-11T00:36:00.169Z,0
2017-07-11T00:40:56.699Z,0
2017-07-11T00:45:52.700Z,0
2017-07-11T00:50:49.144Z,0
2017-07-11T00:55:44.935Z,0
2017-07-11T01:00:41.802Z,0
2017-07-11T01:05:37.330Z,0
2017-07-11T01:10:33.259Z,0
2017-07-11T01:15:30.160Z,0
2017-07-11T01:20:26.723Z,0
2017-07-11T01:25:22.365Z,0
2017-07-11T01:30:19.190Z,0
2017-07-11T01:35:15.043Z,0
2017-07-11T01:40:10.773Z,0
2017-07-11T01:45:06.762Z,0
2017-07-11T01:50:03.033Z,0
2017-07-11T01:54:58.926Z,0
2017-07-11T01:59:54.896Z,0
2017-07-11T02:04:50.621Z,0
2017-07-11T02:09:47.477Z,0
2017-07-11T02:14:44.015Z,0
2017-07-11T02:19:39.671Z,0
2017-07-11T02:24:36.791Z,0
2017-07-11T02:29:32.249Z,0
2017-07-11T02:34:29.387Z,0
2017-07-11T02:39:25.060Z,0
2017-07-11T02:44:20.700Z,0
2017-07-11T02:49:18.173Z,0
2017-07-11T02:54:13.662Z,4
2017-07-11T02:59:09.657Z,12
2017-07-11T03:04:05.549Z,20
2017-07-11T03:09:03.803Z,36
2017-07-11T03:13:59.096Z,56
2017-07-11T03:18:56.526Z,80
2017-07-11T03:23:52.162Z,116
2017-07-11T03:28:49.001Z,184
2017-07-11T03:33:44.819Z,228
2017-07-11T03:38:40.727Z,312
2017-07-11T03:43:37.755Z,388
2017-07-11T03:48:33.206Z,512
2017-07-11T03:53:29.728Z,568
2017-07-11T03:58:25.273Z,708
2017-07-11T04:03:21.103Z,1060
2017-07-11T04:08:17.163Z,864
2017-07-11T04:13:14.573Z,1176
2017-07-11T04:18:09.935Z,1440
2017-07-11T04:23:05.732Z,1792
2017-07-11T04:28:01.688Z,1872
2017-07-11T04:32:59.073Z,2212
2017-07-11T04:37:55.790Z,5004
2017-07-11T04:42:52.343Z,5816
2017-07-11T04:47:48.476Z,6604
2017-07-11T04:52:44.933Z,7416
2017-07-11T04:57:41.768Z,8548
2017-07-11T05:02:38.314Z,8864
2017-07-11T05:07:36.074Z,8884
2017-07-11T05:12:32.189Z,12888
2017-07-11T05:17:28.822Z,8408
2017-07-11T05:22:25.486Z,4036
2017-07-11T05:27:21.714Z,6972
2017-07-11T05:32:19.368Z,7116
2017-07-11T05:37:16.007Z,10144
2017-07-11T05:42:11.386Z,5024
2017-07-11T05:47:07.150Z,8652
2017-07-11T05:52:03.123Z,7100
2017-07-11T05:56:59.133Z,4956
2017-07-11T06:01:55.009Z,4452
2017-07-11T06:06:50.567Z,4864
2017-07-11T06:11:47.586Z,6252
2017-07-11T06:16:44.403Z,5348
2017-07-11T06:21:39.903Z,3508
2017-07-11T06:26:35.262Z,3396
2017-07-11T06:31:30.940Z,4016
2017-07-11T06:36:27.817Z,3900
2017-07-11T06:41:23.430Z,3772
2017-07-11T06:46:19.251Z,3668
2017-07-11T06:51:15.122Z,3684
2017-07-11T06:56:10.947Z,4136
2017-07-11T07:01:06.576Z,3896
2017-07-11T07:06:02.983Z,3404
2017-07-11T07:10:59.724Z,4856
2017-07-11T07:15:55.093Z,6520
2017-07-11T07:20:51.063Z,4788
2017-07-11T07:25:47.056Z,6108
2017-07-11T07:30:43.516Z,4556
2017-07-11T07:35:39.511Z,3728
2017-07-11T07:40:35.375Z,3584
2017-07-11T07:45:32.094Z,4032
2017-07-11T07:50:29.183Z,7580
2017-07-11T07:55:24.717Z,4856
2017-07-11T08:00:20.352Z,4256
2017-07-11T08:05:16.824Z,4252
2017-07-11T08:10:13.148Z,4464
2017-07-11T08:15:09.129Z,5468
2017-07-11T08:20:06.300Z,3896
2017-07-11T08:25:02.904Z,3180
2017-07-11T08:29:59.577Z,3928
2017-07-11T08:34:56.304Z,3108
2017-07-11T08:39:51.974Z,4072
2017-07-11T08:44:47.725Z,4436
2017-07-11T08:49:43.605Z,5224
2017-07-11T08:54:39.634Z,7324
2017-07-11T08:59:37.211Z,7912
2017-07-11T09:04:33.236Z,6492
2017-07-11T09:09:29.298Z,7356
2017-07-11T09:14:26.723Z,6880
2017-07-11T09:19:22.764Z,5616
2017-07-11T09:24:19.586Z,6976
2017-07-11T09:29:15.226Z,8844
2017-07-11T09:34:11.306Z,11292
2017-07-11T09:39:07.355Z,10824
2017-07-11T09:44:03.704Z,7312
2017-07-11T09:48:59.555Z,5864
2017-07-11T09:53:55.469Z,13604
2017-07-11T09:58:51.650Z,26592
2017-07-11T10:03:48.103Z,8608
2017-07-11T10:08:43.707Z,8624
2017-07-11T10:13:41.254Z,10604
2017-07-11T10:18:37.627Z,12988
2017-07-11T10:23:34.016Z,22656
2017-07-11T10:28:31.452Z,13252
2017-07-11T10:33:29.152Z,67968
2017-07-11T10:38:28.516Z,56352
2017-07-11T10:43:25.739Z,58464
2017-07-11T10:48:23.485Z,58848
2017-07-11T10:53:20.565Z,71616
2017-07-11T10:58:17.945Z,61280
2017-07-11T11:03:14.440Z,75040
2017-07-11T11:08:11.291Z,54144
2017-07-11T11:13:07.405Z,11312
2017-07-11T11:18:04.464Z,24768
2017-07-11T11:23:00.354Z,85344
2017-07-11T11:27:57.587Z,81568
2017-07-11T11:32:53.614Z,44512
2017-07-11T11:37:49.194Z,96832
2017-07-11T11:42:48.921Z,74432
2017-07-11T11:47:45.633Z,97984
2017-07-11T11:52:43.735Z,98848
2017-07-11T11:57:37.619Z,86752
2017-07-11T12:02:35.155Z,75872
2017-07-11T12:07:31.574Z,86272
2017-07-11T12:12:27.447Z,16540
2017-07-11T12:17:21.607Z,106336
2017-07-11T12:22:17.414Z,79968
2017-07-11T12:27:14.401Z,27040
2017-07-11T12:32:09.674Z,40800
2017-07-11T12:37:04.054Z,13972
2017-07-11T12:41:59.871Z,11604
2017-07-11T12:46:55.259Z,21888
2017-07-11T12:51:51.518Z,19552
2017-07-11T12:56:47.027Z,30656
2017-07-11T13:01:43.233Z,39872
2017-07-11T13:06:40.758Z,23264
2017-07-11T13:11:37.888Z,22944
2017-07-11T13:16:34.889Z,73024
2017-07-11T13:21:31.865Z,23168
2017-07-11T13:26:29.235Z,15692
2017-07-11T13:31:24.299Z,14144
2017-07-11T13:36:19.880Z,13320
2017-07-11T13:41:15.448Z,10308
2017-07-11T13:46:12.577Z,20256
2017-07-11T13:51:08.412Z,11540
2017-07-11T13:56:05.206Z,12628
2017-07-11T14:01:00.863Z,11148
2017-07-11T14:05:56.512Z,5840
2017-07-11T14:10:52.753Z,1868
2017-07-11T14:15:48.921Z,732
2017-07-11T14:20:44.959Z,664
2017-07-11T14:25:39.771Z,812
2017-07-11T14:30:34.930Z,1600
2017-07-11T14:35:30.204Z,1544
2017-07-11T14:40:25.586Z,1784
2017-07-11T14:45:21.246Z,4616
2017-07-11T14:50:16.927Z,4432
2017-07-11T14:55:13.640Z,6448
2017-07-11T15:00:09.707Z,8248
2017-07-11T15:05:05.862Z,8016
2017-07-11T15:10:02.279Z,8028
2017-07-11T15:14:59.523Z,8516
2017-07-11T15:19:55.869Z,8164
2017-07-11T15:24:52.918Z,8204
2017-07-11T15:29:48.524Z,8520
2017-07-11T15:34:45.547Z,8572
2017-07-11T15:39:41.014Z,8788
2017-07-11T15:44:36.897Z,8644
2017-07-11T15:49:32.723Z,7964
2017-07-11T15:54:29.580Z,6784
2017-07-11T15:59:25.172Z,5512
2017-07-11T16:04:21.318Z,5160
2017-07-11T16:09:16.941Z,5984
2017-07-11T16:14:14.288Z,5568
2017-07-11T16:19:10.950Z,4684
2017-07-11T16:24:06.483Z,3856
2017-07-11T16:29:02.244Z,3236
2017-07-11T16:33:58.104Z,4008
2017-07-11T16:38:55.325Z,4912
2017-07-11T16:43:51.036Z,5520
2017-07-11T16:48:47.079Z,5284
2017-07-11T16:53:44.071Z,4676
2017-07-11T16:58:39.451Z,4052
2017-07-11T17:03:36.626Z,3672
2017-07-11T17:08:31.901Z,4080
2017-07-11T17:13:29.180Z,4112
2017-07-11T17:18:24.756Z,3916
2017-07-11T17:23:21.200Z,3332
2017-07-11T17:28:17.823Z,3112
2017-07-11T17:33:13.443Z,2784
2017-07-11T17:38:10.101Z,2656
2017-07-11T17:43:05.730Z,2948
2017-07-11T17:48:01.707Z,2672
2017-07-11T17:52:58.799Z,2312
2017-07-11T17:57:54.375Z,2256
2017-07-11T18:02:50.240Z,2048
2017-07-11T18:07:47.525Z,1852
2017-07-11T18:12:43.383Z,2096
2017-07-11T18:17:39.613Z,1848
2017-07-11T18:22:35.579Z,1460
2017-07-11T18:27:31.663Z,1488
2017-07-11T18:32:27.467Z,1280
2017-07-11T18:37:24.745Z,1272
2017-07-11T18:42:20.339Z,1160
2017-07-11T18:47:17.150Z,892
2017-07-11T18:52:12.633Z,804
2017-07-11T18:57:08.445Z,644
2017-07-11T19:02:04.170Z,588
2017-07-11T19:06:59.877Z,484
2017-07-11T19:11:56.168Z,400
2017-07-11T19:16:53.149Z,320
2017-07-11T19:21:49.279Z,236
2017-07-11T19:26:46.262Z,152
2017-07-11T19:31:43.055Z,120
2017-07-11T19:36:38.804Z,100
2017-07-11T19:41:34.504Z,80
2017-07-11T19:46:30.846Z,64
2017-07-11T19:51:27.193Z,48
2017-07-11T19:56:23.150Z,32
2017-07-11T20:01:20.576Z,20
2017-07-11T20:06:17.079Z,12
2017-07-11T20:11:13.248Z,4
2017-07-11T20:16:10.215Z,4
2017-07-11T20:21:05.933Z,4
2017-07-11T20:26:03.115Z,0
2017-07-11T20:31:00.655Z,0
2017-07-11T20:35:57.679Z,0
2017-07-11T20:40:54.765Z,0
2017-07-11T20:45:50.792Z,0
2017-07-11T20:50:50.207Z,0
2017-07-11T20:55:45.195Z,0
2017-07-11T21:00:40.883Z,0
2017-07-11T21:05:37.461Z,0
2017-07-11T21:10:34.128Z,0
2017-07-11T21:15:30.985Z,0
2017-07-11T21:20:26.398Z,0
2017-07-11T21:25:23.263Z,0
2017-07-11T21:30:18.802Z,0
2017-07-11T21:35:14.563Z,0
2017-07-11T21:40:11.739Z,0
2017-07-11T21:45:07.290Z,0
2017-07-11T21:50:04.570Z,0
2017-07-11T21:55:00.459Z,0
2017-07-11T21:59:56.632Z,0
2017-07-11T22:04:53.675Z,0
2017-07-11T22:09:49.350Z,0
2017-07-11T22:14:45.575Z,0
2017-07-11T22:19:41.418Z,0
2017-07-11T22:24:38.346Z,0
2017-07-11T22:29:33.897Z,0
2017-07-11T22:34:29.762Z,0
2017-07-11T22:39:25.669Z,0
2017-07-11T22:44:22.833Z,0
2017-07-11T22:49:18.575Z,0
2017-07-11T22:54:14.487Z,0
2017-07-11T22:59:10.397Z,0
2017-07-11T23:04:06.372Z,0
2017-07-11T23:09:02.216Z,0
2017-07-11T23:13:58.376Z,0
2017-07-11T23:18:55.286Z,0
2017-07-11T23:23:50.786Z,0
2017-07-11T23:28:46.695Z,0
2017-07-11T23:33:42.504Z,0
2017-07-11T23:38:39.513Z,0
2017-07-11T23:43:35.060Z,0
2017-07-11T23:48:30.842Z,0
2017-07-11T23:53:27.723Z,0
2017-07-11T23:58:23.259Z,0
